KRDM/RDM METAR and TAF weather

Enter ICAO airport designator
Station Type Date Time Source
KRDM METAR 2018/12/15 03:56 UTC NOAA

KRDM 150356Z AUTO 21009KT 10SM SCT048 BKN070 03/00 A2989 RMK AO2 SLP128 T00330000


Station Type Date Time Source
KRDM Decoded METAR 2018/12/15 03:56 UTC NOAA

REDMOND ROBERTS FIELD, OR, United States (KRDM) 44-15N 121-08W
Dec 14, 2018 - 10:56 PM EST / 2018.12.15 0356 UTC
Wind: from the SSW (210 degrees) at 10 MPH (9 KT):0
Visibility: 10 mile(s):0
Sky conditions: mostly cloudy
Temperature: 37.9 F (3.3 C)
Dew Point: 32.0 F (0.0 C)
Relative Humidity: 78%
Pressure (altimeter): 29.89 in. Hg (1012 hPa)
ob: KRDM 150356Z AUTO 21009KT 10SM SCT048 BKN070 03/00 A2989 RMK AO2 SLP128 T00330000
cycle: 4

Station Type Date Time Source
KRDM TAF 2018/12/15 04:36 UTC NOAA

TAF KRDM 150330Z 1504/1524 22010KT P6SM SCT050 BKN070
FM150900 17007KT P6SM FEW050 BKN250


Example: see airport list